createdAt,value
2018-02-07T00:00:01.530Z,0
2018-02-07T00:01:01.288Z,0
2018-02-07T00:02:01.073Z,0
2018-02-07T00:03:01.571Z,0
2018-02-07T00:04:01.080Z,0
2018-02-07T00:05:01.090Z,0
2018-02-07T00:06:01.101Z,0
2018-02-07T00:07:01.367Z,0
2018-02-07T00:08:01.372Z,0
2018-02-07T00:09:01.391Z,0
2018-02-07T00:10:01.213Z,0
2018-02-07T00:11:01.161Z,0
2018-02-07T00:12:01.179Z,0
2018-02-07T00:13:00.936Z,0
2018-02-07T00:14:01.499Z,0
2018-02-07T00:15:01.581Z,0
2018-02-07T00:16:01.233Z,0
2018-02-07T00:17:01.256Z,0
2018-02-07T00:18:01.497Z,0
2018-02-07T00:19:01.004Z,0
2018-02-07T00:20:01.567Z,0
2018-02-07T00:21:01.529Z,0
2018-02-07T00:22:01.785Z,0
2018-02-07T00:23:01.544Z,0
2018-02-07T00:24:01.811Z,0
2018-02-07T00:25:01.325Z,0
2018-02-07T00:26:01.589Z,0
2018-02-07T00:27:01.603Z,0
2018-02-07T00:28:01.364Z,0
2018-02-07T00:29:01.675Z,0
2018-02-07T00:30:01.424Z,0
2018-02-07T00:31:01.387Z,0
2018-02-07T00:32:01.650Z,0
2018-02-07T00:33:01.416Z,0
2018-02-07T00:34:01.927Z,0
2018-02-07T00:35:01.689Z,0
2018-02-07T00:36:01.449Z,0
2018-02-07T00:37:01.712Z,0
2018-02-07T00:38:01.476Z,0
2018-02-07T00:39:01.738Z,0
2018-02-07T00:40:01.508Z,0
2018-02-07T00:41:01.511Z,0
2018-02-07T00:42:01.776Z,0
2018-02-07T00:43:01.537Z,0
2018-02-07T00:44:02.112Z,0
2018-02-07T00:45:02.077Z,0
2018-02-07T00:46:01.571Z,0
2018-02-07T00:47:01.836Z,0
2018-02-07T00:48:01.844Z,0
2018-02-07T00:49:02.109Z,0
2018-02-07T00:50:01.866Z,0
2018-02-07T00:51:01.882Z,0
2018-02-07T00:52:02.153Z,0
2018-02-07T00:53:01.657Z,0
2018-02-07T00:54:01.919Z,0
2018-02-07T00:55:01.942Z,0
2018-02-07T00:56:01.931Z,0
2018-02-07T00:57:01.944Z,0
2018-02-07T00:58:01.955Z,0
2018-02-07T00:59:02.280Z,0
2018-02-07T01:00:01.727Z,0
2018-02-07T01:01:01.994Z,0
2018-02-07T01:02:02.009Z,0
2018-02-07T01:03:02.024Z,0
2018-02-07T01:04:02.036Z,0
2018-02-07T01:05:01.802Z,0
2018-02-07T01:06:02.410Z,0
2018-02-07T01:07:01.565Z,0
2018-02-07T01:08:02.090Z,0
2018-02-07T01:09:02.092Z,0
2018-02-07T01:10:02.108Z,0
2018-02-07T01:11:01.864Z,0
2018-02-07T01:12:01.872Z,0
2018-02-07T01:13:02.144Z,0
2018-02-07T01:14:02.201Z,0
2018-02-07T01:15:02.414Z,0
2018-02-07T01:16:01.674Z,0
2018-02-07T01:17:02.183Z,0
2018-02-07T01:18:01.693Z,0
2018-02-07T01:19:01.708Z,0
2018-02-07T01:20:02.220Z,0
2018-02-07T01:21:02.231Z,0
2018-02-07T01:22:02.499Z,0
2018-02-07T01:23:02.254Z,0
2018-02-07T01:24:02.266Z,0
2018-02-07T01:25:02.281Z,0
2018-02-07T01:26:02.538Z,0
2018-02-07T01:27:02.052Z,0
2018-02-07T01:28:02.074Z,0
2018-02-07T01:29:02.330Z,0
2018-02-07T01:30:02.132Z,0
2018-02-07T01:31:02.345Z,0
2018-02-07T01:32:02.371Z,0
2018-02-07T01:33:02.386Z,0
2018-02-07T01:34:02.385Z,0
2018-02-07T01:35:02.142Z,0
2018-02-07T01:36:02.156Z,0
2018-02-07T01:37:02.668Z,0
2018-02-07T01:38:02.469Z,0
2018-02-07T01:39:02.442Z,0
2018-02-07T01:40:01.948Z,0
2018-02-07T01:41:02.459Z,0
2018-02-07T01:42:02.476Z,0
2018-02-07T01:43:02.234Z,0
2018-02-07T01:44:02.512Z,0
2018-02-07T01:45:02.308Z,0
2018-02-07T01:46:02.773Z,0
2018-02-07T01:47:02.281Z,0
2018-02-07T01:48:02.545Z,0
2018-02-07T01:49:02.302Z,0
2018-02-07T01:50:02.323Z,0
2018-02-07T01:51:02.586Z,0
2018-02-07T01:52:02.341Z,0
2018-02-07T01:53:02.397Z,0
2018-02-07T01:54:02.613Z,0
2018-02-07T01:55:02.392Z,0
2018-02-07T01:56:02.636Z,0
2018-02-07T01:57:02.397Z,0
2018-02-07T01:58:02.662Z,0
2018-02-07T01:59:02.440Z,0
2018-02-07T02:00:02.500Z,0
2018-02-07T02:01:02.691Z,0
2018-02-07T02:02:02.955Z,0
2018-02-07T02:03:02.722Z,0
2018-02-07T02:04:02.729Z,0
2018-02-07T02:05:02.487Z,0
2018-02-07T02:06:02.760Z,0
2018-02-07T02:07:02.513Z,0
2018-02-07T02:08:02.816Z,0
2018-02-07T02:09:02.535Z,0
2018-02-07T02:10:03.263Z,0
2018-02-07T02:11:02.557Z,0
2018-02-07T02:12:02.571Z,0
2018-02-07T02:13:02.328Z,0
2018-02-07T02:14:02.848Z,0
2018-02-07T02:15:02.400Z,0
2018-02-07T02:16:02.869Z,0
2018-02-07T02:17:02.640Z,0
2018-02-07T02:18:02.890Z,0
2018-02-07T02:19:02.895Z,0
2018-02-07T02:20:02.922Z,0
2018-02-07T02:21:03.174Z,0
2018-02-07T02:22:02.936Z,0
2018-02-07T02:23:02.948Z,0
2018-02-07T02:24:02.711Z,0
2018-02-07T02:25:03.230Z,0
2018-02-07T02:26:03.239Z,0
2018-02-07T02:27:02.741Z,0
2018-02-07T02:28:03.006Z,0
2018-02-07T02:29:03.017Z,0
2018-02-07T02:30:02.834Z,0
2018-02-07T02:31:02.788Z,0
2018-02-07T02:32:03.055Z,0
2018-02-07T02:33:03.061Z,0
2018-02-07T02:34:02.817Z,0
2018-02-07T02:35:03.083Z,0
2018-02-07T02:36:03.095Z,0
2018-02-07T02:37:03.105Z,0
2018-02-07T02:38:03.366Z,0
2018-02-07T02:39:02.878Z,0
2018-02-07T02:40:03.139Z,0
2018-02-07T02:41:03.151Z,0
2018-02-07T02:42:03.168Z,0
2018-02-07T02:43:03.175Z,0
2018-02-07T02:44:02.935Z,0
2018-02-07T02:45:03.492Z,0
2018-02-07T02:46:03.203Z,0
2018-02-07T02:47:02.967Z,0
2018-02-07T02:48:02.979Z,0
2018-02-07T02:49:03.244Z,0
2018-02-07T02:50:03.252Z,0
2018-02-07T02:51:03.514Z,0
2018-02-07T02:52:03.281Z,0
2018-02-07T02:53:03.543Z,0
2018-02-07T02:54:03.057Z,0
2018-02-07T02:55:03.079Z,0
2018-02-07T02:56:03.335Z,0
2018-02-07T02:57:03.084Z,0
2018-02-07T02:58:03.358Z,0
2018-02-07T02:59:03.366Z,0
2018-02-07T03:00:03.169Z,0
2018-02-07T03:01:03.380Z,0
2018-02-07T03:02:03.400Z,0
2018-02-07T03:03:03.404Z,0
2018-02-07T03:04:03.162Z,0
2018-02-07T03:05:03.423Z,0
2018-02-07T03:06:03.434Z,0
2018-02-07T03:07:03.201Z,0
2018-02-07T03:08:03.461Z,0
2018-02-07T03:09:03.730Z,0
2018-02-07T03:10:03.232Z,0
2018-02-07T03:11:03.242Z,0
2018-02-07T03:12:03.256Z,0
2018-02-07T03:13:03.515Z,0
2018-02-07T03:14:03.537Z,0
2018-02-07T03:15:03.600Z,0
2018-02-07T03:16:03.551Z,0
2018-02-07T03:17:03.563Z,0
2018-02-07T03:18:03.330Z,0
2018-02-07T03:19:03.344Z,0
2018-02-07T03:20:03.843Z,0
2018-02-07T03:21:03.349Z,0
2018-02-07T03:22:03.858Z,0
2018-02-07T03:23:03.370Z,0
2018-02-07T03:24:03.130Z,0
2018-02-07T03:25:03.399Z,0
2018-02-07T03:26:03.654Z,0
2018-02-07T03:27:03.674Z,0
2018-02-07T03:28:03.680Z,0
2018-02-07T03:29:03.703Z,0
2018-02-07T03:30:03.260Z,0
2018-02-07T03:31:03.989Z,0
2018-02-07T03:32:03.734Z,0
2018-02-07T03:33:03.740Z,0
2018-02-07T03:34:03.755Z,0
2018-02-07T03:35:03.870Z,0
2018-02-07T03:36:03.779Z,0
2018-02-07T03:37:03.793Z,0
2018-02-07T03:38:03.807Z,0
2018-02-07T03:39:04.070Z,0
2018-02-07T03:40:03.576Z,0
2018-02-07T03:41:03.833Z,0
2018-02-07T03:42:03.853Z,0
2018-02-07T03:43:03.606Z,0
2018-02-07T03:44:04.131Z,0
2018-02-07T03:45:03.933Z,0
2018-02-07T03:46:03.898Z,0
2018-02-07T03:47:03.402Z,0
2018-02-07T03:48:03.921Z,0
2018-02-07T03:49:04.184Z,0
2018-02-07T03:50:03.939Z,0
2018-02-07T03:51:04.203Z,0
2018-02-07T03:52:03.956Z,0
2018-02-07T03:53:03.466Z,0
2018-02-07T03:54:03.977Z,0
2018-02-07T03:55:04.000Z,0
2018-02-07T03:56:03.502Z,0
2018-02-07T03:57:03.524Z,0
2018-02-07T03:58:04.279Z,0
2018-02-07T03:59:04.298Z,0
2018-02-07T04:00:04.111Z,0
2018-02-07T04:01:03.815Z,0
2018-02-07T04:02:04.090Z,0
2018-02-07T04:03:04.088Z,0
2018-02-07T04:04:04.108Z,0
2018-02-07T04:05:04.112Z,0
2018-02-07T04:06:04.129Z,0
2018-02-07T04:07:03.890Z,0
2018-02-07T04:08:04.150Z,0
2018-02-07T04:09:04.162Z,0
2018-02-07T04:10:04.172Z,0
2018-02-07T04:11:04.429Z,0
2018-02-07T04:12:03.962Z,0
2018-02-07T04:13:03.954Z,0
2018-02-07T04:14:04.218Z,0
2018-02-07T04:15:03.977Z,0
2018-02-07T04:16:03.989Z,0
2018-02-07T04:17:04.250Z,0
2018-02-07T04:18:04.266Z,0
2018-02-07T04:19:04.577Z,0
2018-02-07T04:20:04.558Z,0
2018-02-07T04:21:04.553Z,0
2018-02-07T04:22:04.311Z,0
2018-02-07T04:23:03.804Z,0
2018-02-07T04:24:04.067Z,0
2018-02-07T04:25:04.331Z,0
2018-02-07T04:26:04.341Z,0
2018-02-07T04:27:04.349Z,0
2018-02-07T04:28:04.399Z,0
2018-02-07T04:29:04.391Z,0
2018-02-07T04:30:04.408Z,0
2018-02-07T04:31:04.159Z,0
2018-02-07T04:32:04.429Z,0
2018-02-07T04:33:04.690Z,0
2018-02-07T04:34:04.506Z,0
2018-02-07T04:35:04.206Z,0
2018-02-07T04:36:04.479Z,0
2018-02-07T04:37:04.485Z,0
2018-02-07T04:38:04.497Z,0
2018-02-07T04:39:04.507Z,0
2018-02-07T04:40:04.529Z,0
2018-02-07T04:41:04.277Z,0
2018-02-07T04:42:04.043Z,0
2018-02-07T04:43:04.555Z,0
2018-02-07T04:44:04.901Z,0
2018-02-07T04:45:04.574Z,0
2018-02-07T04:46:04.349Z,0
2018-02-07T04:47:04.598Z,0
2018-02-07T04:48:04.618Z,0
2018-02-07T04:49:04.675Z,0
2018-02-07T04:50:04.927Z,0
2018-02-07T04:51:04.643Z,0
2018-02-07T04:52:04.655Z,0
2018-02-07T04:53:04.416Z,0
2018-02-07T04:54:04.427Z,0
2018-02-07T04:55:04.699Z,0
2018-02-07T04:56:04.452Z,0
2018-02-07T04:57:04.474Z,0
2018-02-07T04:58:04.733Z,0
2018-02-07T04:59:04.750Z,0
2018-02-07T05:00:04.761Z,0
2018-02-07T05:01:04.768Z,0
2018-02-07T05:02:04.523Z,0
2018-02-07T05:03:04.542Z,0
2018-02-07T05:04:04.851Z,0
2018-02-07T05:05:04.809Z,0
2018-02-07T05:06:04.569Z,0
2018-02-07T05:07:04.579Z,0
2018-02-07T05:08:04.592Z,0
2018-02-07T05:09:04.861Z,0
2018-02-07T05:10:05.111Z,0
2018-02-07T05:11:04.872Z,0
2018-02-07T05:12:04.637Z,0
2018-02-07T05:13:05.147Z,0
2018-02-07T05:14:04.910Z,0
2018-02-07T05:15:04.677Z,0
2018-02-07T05:16:05.181Z,0
2018-02-07T05:17:04.936Z,0
2018-02-07T05:18:05.204Z,0
2018-02-07T05:19:05.188Z,0
2018-02-07T05:20:04.728Z,0
2018-02-07T05:21:04.741Z,0
2018-02-07T05:22:04.748Z,0
2018-02-07T05:23:05.024Z,0
2018-02-07T05:24:05.033Z,0
2018-02-07T05:25:04.795Z,0
2018-02-07T05:26:05.055Z,0
2018-02-07T05:27:05.076Z,0
2018-02-07T05:28:05.080Z,0
2018-02-07T05:29:05.094Z,0
2018-02-07T05:30:05.104Z,0
2018-02-07T05:31:05.123Z,0
2018-02-07T05:32:05.386Z,0
2018-02-07T05:33:04.890Z,0
2018-02-07T05:34:04.952Z,0
2018-02-07T05:35:04.916Z,0
2018-02-07T05:36:04.927Z,0
2018-02-07T05:37:04.942Z,0
2018-02-07T05:38:05.207Z,0
2018-02-07T05:39:05.216Z,0
2018-02-07T05:40:04.975Z,0
2018-02-07T05:41:05.238Z,0
2018-02-07T05:42:05.246Z,0
2018-02-07T05:43:05.511Z,0
2018-02-07T05:44:05.525Z,0
2018-02-07T05:45:05.290Z,0
2018-02-07T05:46:05.550Z,0
2018-02-07T05:47:05.564Z,0
2018-02-07T05:48:05.338Z,0
2018-02-07T05:49:04.882Z,0
2018-02-07T05:50:05.109Z,0
2018-02-07T05:51:05.356Z,0
2018-02-07T05:52:05.373Z,0
2018-02-07T05:53:05.381Z,0
2018-02-07T05:54:05.393Z,0
2018-02-07T05:55:05.405Z,0
2018-02-07T05:56:05.421Z,0
2018-02-07T05:57:05.185Z,0
2018-02-07T05:58:05.702Z,0
2018-02-07T05:59:05.200Z,0
2018-02-07T06:00:05.212Z,0
2018-02-07T06:01:05.797Z,0
2018-02-07T06:02:05.492Z,0
2018-02-07T06:03:05.248Z,0
2018-02-07T06:04:05.259Z,0
2018-02-07T06:05:05.783Z,0
2018-02-07T06:06:05.588Z,0
2018-02-07T06:07:05.301Z,0
2018-02-07T06:08:05.564Z,0
2018-02-07T06:09:05.320Z,0
2018-02-07T06:10:05.330Z,0
2018-02-07T06:11:05.596Z,0
2018-02-07T06:12:05.611Z,0
2018-02-07T06:13:05.372Z,0
2018-02-07T06:14:05.405Z,4
2018-02-07T06:15:05.700Z,4
2018-02-07T06:16:05.915Z,0
2018-02-07T06:17:05.678Z,4
2018-02-07T06:18:05.683Z,4
2018-02-07T06:19:05.694Z,4
2018-02-07T06:20:05.706Z,4
2018-02-07T06:21:05.767Z,8
2018-02-07T06:22:05.735Z,4
2018-02-07T06:23:05.735Z,8
2018-02-07T06:24:05.749Z,8
2018-02-07T06:25:05.519Z,8
2018-02-07T06:26:06.034Z,12
2018-02-07T06:27:05.788Z,12
2018-02-07T06:28:06.052Z,16
2018-02-07T06:29:05.838Z,16
2018-02-07T06:30:05.574Z,16
2018-02-07T06:31:06.095Z,20
2018-02-07T06:32:05.849Z,20
2018-02-07T06:33:05.878Z,20
2018-02-07T06:34:05.629Z,24
2018-02-07T06:35:05.643Z,24
2018-02-07T06:36:05.953Z,28
2018-02-07T06:37:05.666Z,28
2018-02-07T06:38:05.422Z,32
2018-02-07T06:39:05.941Z,32
2018-02-07T06:40:05.726Z,36
2018-02-07T06:41:06.024Z,36
2018-02-07T06:42:05.979Z,40
2018-02-07T06:43:06.243Z,40
2018-02-07T06:44:06.009Z,44
2018-02-07T06:45:06.024Z,44
2018-02-07T06:46:06.031Z,48
2018-02-07T06:47:06.043Z,52
2018-02-07T06:48:05.801Z,52
2018-02-07T06:49:05.562Z,56
2018-02-07T06:50:05.827Z,60
2018-02-07T06:51:06.189Z,64
2018-02-07T06:52:05.603Z,68
2018-02-07T06:53:06.117Z,76
2018-02-07T06:54:06.132Z,80
2018-02-07T06:55:05.903Z,84
2018-02-07T06:56:06.454Z,84
2018-02-07T06:57:06.166Z,88
2018-02-07T06:58:06.183Z,96
2018-02-07T06:59:05.938Z,104
2018-02-07T07:00:06.216Z,104
2018-02-07T07:01:06.264Z,108
2018-02-07T07:02:05.971Z,112
2018-02-07T07:03:06.242Z,116
2018-02-07T07:04:06.254Z,120
2018-02-07T07:05:06.517Z,132
2018-02-07T07:06:06.580Z,140
2018-02-07T07:07:06.037Z,148
2018-02-07T07:08:06.302Z,152
2018-02-07T07:09:06.058Z,160
2018-02-07T07:10:06.579Z,164
2018-02-07T07:11:06.084Z,168
2018-02-07T07:12:06.094Z,176
2018-02-07T07:13:06.108Z,184
2018-02-07T07:14:06.375Z,192
2018-02-07T07:15:06.132Z,200
2018-02-07T07:16:06.654Z,208
2018-02-07T07:17:06.156Z,220
2018-02-07T07:18:06.672Z,228
2018-02-07T07:19:06.180Z,240
2018-02-07T07:20:06.454Z,252
2018-02-07T07:21:06.506Z,252
2018-02-07T07:22:06.270Z,252
2018-02-07T07:23:06.493Z,256
2018-02-07T07:24:06.499Z,256
2018-02-07T07:25:06.256Z,252
2018-02-07T07:26:06.018Z,252
2018-02-07T07:27:06.530Z,256
2018-02-07T07:28:06.798Z,256
2018-02-07T07:29:06.554Z,260
2018-02-07T07:30:06.317Z,260
2018-02-07T07:31:06.586Z,256
2018-02-07T07:32:06.644Z,260
2018-02-07T07:33:06.857Z,260
2018-02-07T07:34:06.869Z,260
2018-02-07T07:35:06.892Z,256
2018-02-07T07:36:06.442Z,252
2018-02-07T07:37:06.446Z,256
2018-02-07T07:38:06.669Z,260
2018-02-07T07:39:06.933Z,268
2018-02-07T07:40:06.695Z,280
2018-02-07T07:41:06.959Z,288
2018-02-07T07:42:06.715Z,292
2018-02-07T07:43:06.479Z,296
2018-02-07T07:44:06.747Z,300
2018-02-07T07:45:06.523Z,308
2018-02-07T07:46:06.517Z,316
2018-02-07T07:47:07.030Z,332
2018-02-07T07:48:07.042Z,344
2018-02-07T07:49:06.802Z,348
2018-02-07T07:50:06.834Z,368
2018-02-07T07:51:06.881Z,384
2018-02-07T07:52:06.597Z,404
2018-02-07T07:53:06.859Z,420
2018-02-07T07:54:06.874Z,432
2018-02-07T07:55:07.152Z,436
2018-02-07T07:56:06.390Z,440
2018-02-07T07:57:07.193Z,440
2018-02-07T07:58:07.167Z,436
2018-02-07T07:59:06.931Z,428
2018-02-07T08:00:06.976Z,432
2018-02-07T08:01:06.964Z,436
2018-02-07T08:02:06.710Z,440
2018-02-07T08:03:06.981Z,448
2018-02-07T08:04:06.990Z,452
2018-02-07T08:05:07.005Z,456
2018-02-07T08:06:07.811Z,460
2018-02-07T08:07:07.278Z,452
2018-02-07T08:08:07.044Z,448
2018-02-07T08:09:07.080Z,440
2018-02-07T08:10:07.077Z,440
2018-02-07T08:11:06.885Z,440
2018-02-07T08:12:07.351Z,440
2018-02-07T08:13:06.860Z,444
2018-02-07T08:14:06.867Z,444
2018-02-07T08:15:06.876Z,444
2018-02-07T08:16:07.143Z,444
2018-02-07T08:17:07.414Z,444
2018-02-07T08:18:07.164Z,452
2018-02-07T08:19:06.928Z,460
2018-02-07T08:20:07.467Z,468
2018-02-07T08:21:07.511Z,476
2018-02-07T08:22:07.476Z,476
2018-02-07T08:23:07.233Z,480
2018-02-07T08:24:07.242Z,476
2018-02-07T08:25:07.003Z,468
2018-02-07T08:26:07.030Z,468
2018-02-07T08:27:07.031Z,460
2018-02-07T08:28:07.041Z,456
2018-02-07T08:29:07.060Z,456
2018-02-07T08:30:07.320Z,460
2018-02-07T08:31:07.410Z,464
2018-02-07T08:32:07.343Z,468
2018-02-07T08:33:07.104Z,476
2018-02-07T08:34:07.118Z,500
2018-02-07T08:35:07.385Z,516
2018-02-07T08:36:07.690Z,524
2018-02-07T08:37:07.664Z,532
2018-02-07T08:38:07.166Z,540
2018-02-07T08:39:07.430Z,536
2018-02-07T08:40:07.696Z,536
2018-02-07T08:41:07.464Z,544
2018-02-07T08:42:07.217Z,556
2018-02-07T08:43:07.552Z,564
2018-02-07T08:44:07.513Z,564
2018-02-07T08:45:07.759Z,568
2018-02-07T08:46:07.519Z,572
2018-02-07T08:47:07.281Z,576
2018-02-07T08:48:07.546Z,584
2018-02-07T08:49:07.826Z,572
2018-02-07T08:50:07.828Z,556
2018-02-07T08:51:07.882Z,556
2018-02-07T08:52:07.843Z,552
2018-02-07T08:53:07.608Z,536
2018-02-07T08:54:07.618Z,544
2018-02-07T08:55:07.741Z,560
2018-02-07T08:56:07.897Z,580
2018-02-07T08:57:07.150Z,592
2018-02-07T08:58:07.416Z,588
2018-02-07T08:59:07.700Z,592
2018-02-07T09:00:07.699Z,620
2018-02-07T09:01:07.710Z,620
2018-02-07T09:02:07.724Z,644
2018-02-07T09:03:07.733Z,660
2018-02-07T09:04:07.490Z,676
2018-02-07T09:05:07.510Z,680
2018-02-07T09:06:07.823Z,700
2018-02-07T09:07:08.035Z,712
2018-02-07T09:08:07.803Z,716
2018-02-07T09:09:07.808Z,720
2018-02-07T09:10:08.080Z,740
2018-02-07T09:11:07.584Z,756
2018-02-07T09:12:08.123Z,772
2018-02-07T09:13:07.862Z,788
2018-02-07T09:14:07.635Z,800
2018-02-07T09:15:07.884Z,816
2018-02-07T09:16:07.898Z,836
2018-02-07T09:17:08.168Z,860
2018-02-07T09:18:07.949Z,876
2018-02-07T09:19:07.939Z,892
2018-02-07T09:20:07.695Z,928
2018-02-07T09:21:08.006Z,956
2018-02-07T09:22:07.719Z,984
2018-02-07T09:23:07.983Z,996
2018-02-07T09:24:08.260Z,996
2018-02-07T09:25:08.285Z,1004
2018-02-07T09:26:07.770Z,1012
2018-02-07T09:27:07.838Z,1016
2018-02-07T09:28:07.803Z,1008
2018-02-07T09:29:07.809Z,992
2018-02-07T09:30:08.073Z,976
2018-02-07T09:31:08.338Z,952
2018-02-07T09:32:08.100Z,928
2018-02-07T09:33:08.113Z,916
2018-02-07T09:34:08.137Z,912
2018-02-07T09:35:08.138Z,916
2018-02-07T09:36:08.152Z,928
2018-02-07T09:37:08.411Z,924
2018-02-07T09:38:08.420Z,920
2018-02-07T09:39:07.996Z,900
2018-02-07T09:40:08.195Z,896
2018-02-07T09:41:08.210Z,904
2018-02-07T09:42:08.220Z,904
2018-02-07T09:43:07.979Z,900
2018-02-07T09:44:08.244Z,908
2018-02-07T09:45:08.004Z,924
2018-02-07T09:46:08.016Z,932
2018-02-07T09:47:08.035Z,948
2018-02-07T09:48:08.294Z,992
2018-02-07T09:49:08.054Z,1024
2018-02-07T09:50:08.330Z,1044
2018-02-07T09:51:08.331Z,1064
2018-02-07T09:52:08.340Z,1080
2018-02-07T09:53:08.355Z,1080
2018-02-07T09:54:08.182Z,1048
2018-02-07T09:55:08.126Z,1056
2018-02-07T09:56:08.394Z,1068
2018-02-07T09:57:08.161Z,1088
2018-02-07T09:58:08.420Z,1120
2018-02-07T09:59:07.928Z,1160
2018-02-07T10:00:08.447Z,1224
2018-02-07T10:01:08.455Z,1280
2018-02-07T10:02:08.468Z,1300
2018-02-07T10:03:08.487Z,1328
2018-02-07T10:04:08.255Z,1356
2018-02-07T10:05:08.858Z,1384
2018-02-07T10:06:08.521Z,1400
2018-02-07T10:07:08.535Z,1388
2018-02-07T10:08:08.312Z,1376
2018-02-07T10:09:08.560Z,1372
2018-02-07T10:10:08.613Z,1376
2018-02-07T10:11:08.581Z,1364
2018-02-07T10:12:08.597Z,1336
2018-02-07T10:13:08.356Z,1316
2018-02-07T10:14:08.367Z,1320
2018-02-07T10:15:08.883Z,1324
2018-02-07T10:16:08.390Z,1324
2018-02-07T10:17:08.656Z,1300
2018-02-07T10:18:08.419Z,1268
2018-02-07T10:19:08.688Z,1264
2018-02-07T10:20:08.548Z,1248
2018-02-07T10:21:08.456Z,1224
2018-02-07T10:22:08.469Z,1212
2018-02-07T10:23:08.489Z,1204
2018-02-07T10:24:08.743Z,1204
2018-02-07T10:25:08.809Z,1184
2018-02-07T10:26:08.774Z,1168
2018-02-07T10:27:09.037Z,1148
2018-02-07T10:28:08.541Z,1132
2018-02-07T10:29:08.552Z,1124
2018-02-07T10:30:09.169Z,1104
2018-02-07T10:31:08.585Z,1088
2018-02-07T10:32:09.104Z,1104
2018-02-07T10:33:08.856Z,1128
2018-02-07T10:34:09.115Z,1152
2018-02-07T10:35:08.877Z,1172
2018-02-07T10:36:08.688Z,1188
2018-02-07T10:37:08.650Z,1192
2018-02-07T10:38:08.664Z,1200
2018-02-07T10:39:08.924Z,1216
2018-02-07T10:40:08.994Z,1224
2018-02-07T10:41:08.952Z,1236
2018-02-07T10:42:08.717Z,1252
2018-02-07T10:43:08.978Z,1248
2018-02-07T10:44:08.993Z,1232
2018-02-07T10:45:09.002Z,1228
2018-02-07T10:46:09.015Z,1228
2018-02-07T10:47:09.030Z,1236
2018-02-07T10:48:09.041Z,1236
2018-02-07T10:49:09.056Z,1252
2018-02-07T10:50:08.817Z,1272
2018-02-07T10:51:09.328Z,1296
2018-02-07T10:52:09.088Z,1320
2018-02-07T10:53:09.353Z,1328
2018-02-07T10:54:09.363Z,1320
2018-02-07T10:55:08.927Z,1308
2018-02-07T10:56:09.391Z,1304
2018-02-07T10:57:08.902Z,1316
2018-02-07T10:58:09.414Z,1316
2018-02-07T10:59:09.184Z,1324
2018-02-07T11:00:09.190Z,1336
2018-02-07T11:01:09.195Z,1344
2018-02-07T11:02:09.474Z,1348
2018-02-07T11:03:09.246Z,1376
2018-02-07T11:04:08.985Z,1416
2018-02-07T11:05:09.004Z,1464
2018-02-07T11:06:09.261Z,1520
2018-02-07T11:07:09.313Z,1556
2018-02-07T11:08:09.027Z,1584
2018-02-07T11:09:09.293Z,1604
2018-02-07T11:10:08.853Z,1632
2018-02-07T11:11:09.065Z,1656
2018-02-07T11:12:09.111Z,1680
2018-02-07T11:13:09.356Z,1716
2018-02-07T11:14:09.373Z,1776
2018-02-07T11:15:09.637Z,1844
2018-02-07T11:16:09.133Z,1904
2018-02-07T11:17:09.654Z,1932
2018-02-07T11:18:09.159Z,1940
2018-02-07T11:19:09.428Z,1952
2018-02-07T11:20:09.442Z,1976
2018-02-07T11:21:08.985Z,1960
2018-02-07T11:22:09.716Z,1896
2018-02-07T11:23:09.470Z,1828
2018-02-07T11:24:09.231Z,1756
2018-02-07T11:25:09.241Z,1700
2018-02-07T11:26:09.503Z,1656
2018-02-07T11:27:09.576Z,1632
2018-02-07T11:28:09.281Z,1632
2018-02-07T11:29:09.554Z,1656
2018-02-07T11:30:09.304Z,1680
2018-02-07T11:31:09.573Z,1688
2018-02-07T11:32:09.836Z,1684
2018-02-07T11:33:09.605Z,1676
2018-02-07T11:34:09.612Z,1668
2018-02-07T11:35:09.377Z,1616
2018-02-07T11:36:09.381Z,1548
2018-02-07T11:37:09.901Z,1476
2018-02-07T11:38:09.414Z,1432
2018-02-07T11:39:09.173Z,1408
2018-02-07T11:40:09.689Z,1364
2018-02-07T11:41:09.446Z,1296
2018-02-07T11:42:09.512Z,1228
2018-02-07T11:43:09.470Z,1208
2018-02-07T11:44:09.998Z,1220
2018-02-07T11:45:09.744Z,1200
2018-02-07T11:46:10.017Z,1144
2018-02-07T11:47:10.025Z,1100
2018-02-07T11:48:10.034Z,1084
2018-02-07T11:49:10.050Z,1072
2018-02-07T11:50:09.819Z,1056
2018-02-07T11:51:09.316Z,1024
2018-02-07T11:52:09.329Z,1028
2018-02-07T11:53:09.884Z,1048
2018-02-07T11:54:09.862Z,1064
2018-02-07T11:55:10.118Z,1068
2018-02-07T11:56:10.138Z,1052
2018-02-07T11:57:09.690Z,1052
2018-02-07T11:58:09.905Z,1068
2018-02-07T11:59:10.205Z,1072
2018-02-07T12:00:09.932Z,1072
2018-02-07T12:01:09.449Z,1084
2018-02-07T12:02:09.957Z,1120
2018-02-07T12:03:09.968Z,1156
2018-02-07T12:04:10.245Z,1200
2018-02-07T12:05:09.999Z,1252
2018-02-07T12:06:10.265Z,1296
2018-02-07T12:07:09.767Z,1296
2018-02-07T12:08:09.782Z,1276
2018-02-07T12:09:10.047Z,1272
2018-02-07T12:10:09.804Z,1308
2018-02-07T12:11:10.069Z,1356
2018-02-07T12:12:10.386Z,1388
2018-02-07T12:13:10.097Z,1352
2018-02-07T12:14:10.359Z,1288
2018-02-07T12:15:10.119Z,1276
2018-02-07T12:16:10.151Z,1304
2018-02-07T12:17:10.150Z,1344
2018-02-07T12:18:09.903Z,1356
2018-02-07T12:19:10.172Z,1348
2018-02-07T12:20:09.675Z,1360
2018-02-07T12:21:09.936Z,1372
2018-02-07T12:22:09.950Z,1348
2018-02-07T12:23:09.711Z,1304
2018-02-07T12:24:10.229Z,1264
2018-02-07T12:25:10.238Z,1252
2018-02-07T12:26:10.261Z,1256
2018-02-07T12:27:10.563Z,1236
2018-02-07T12:28:09.776Z,1192
2018-02-07T12:29:10.287Z,1144
2018-02-07T12:30:10.053Z,1112
2018-02-07T12:31:10.325Z,1084
2018-02-07T12:32:09.920Z,1068
2018-02-07T12:33:10.093Z,1044
2018-02-07T12:34:10.354Z,1020
2018-02-07T12:35:10.110Z,1004
2018-02-07T12:36:10.123Z,972
2018-02-07T12:37:10.143Z,932
2018-02-07T12:38:10.150Z,896
2018-02-07T12:39:10.667Z,872
2018-02-07T12:40:10.172Z,848
2018-02-07T12:41:10.439Z,844
2018-02-07T12:42:10.250Z,860
2018-02-07T12:43:10.485Z,860
2018-02-07T12:44:10.228Z,844
2018-02-07T12:45:10.792Z,832
2018-02-07T12:46:10.266Z,828
2018-02-07T12:47:10.516Z,820
2018-02-07T12:48:10.533Z,792
2018-02-07T12:49:10.290Z,768
2018-02-07T12:50:10.052Z,756
2018-02-07T12:51:10.062Z,744
2018-02-07T12:52:10.376Z,744
2018-02-07T12:53:10.596Z,736
2018-02-07T12:54:10.612Z,724
2018-02-07T12:55:10.365Z,712
2018-02-07T12:56:10.375Z,708
2018-02-07T12:57:10.385Z,720
2018-02-07T12:58:10.398Z,736
2018-02-07T12:59:10.924Z,748
2018-02-07T13:00:10.425Z,760
2018-02-07T13:01:10.439Z,788
2018-02-07T13:02:10.955Z,832
2018-02-07T13:03:10.979Z,856
2018-02-07T13:04:10.476Z,880
2018-02-07T13:05:10.744Z,916
2018-02-07T13:06:10.247Z,932
2018-02-07T13:07:10.561Z,952
2018-02-07T13:08:10.526Z,984
2018-02-07T13:09:11.043Z,1016
2018-02-07T13:10:10.807Z,1024
2018-02-07T13:11:10.813Z,1048
2018-02-07T13:12:10.574Z,1072
2018-02-07T13:13:10.592Z,1080
2018-02-07T13:14:10.600Z,1112
2018-02-07T13:15:10.871Z,1156
2018-02-07T13:16:10.624Z,1164
2018-02-07T13:17:10.929Z,1116
2018-02-07T13:18:10.649Z,1040
2018-02-07T13:19:10.925Z,1024
2018-02-07T13:20:10.935Z,1108
2018-02-07T13:21:10.686Z,1172
2018-02-07T13:22:11.014Z,1164
2018-02-07T13:23:10.962Z,1176
2018-02-07T13:24:10.973Z,1168
2018-02-07T13:25:11.249Z,1120
2018-02-07T13:26:10.997Z,1032
2018-02-07T13:27:11.014Z,980
2018-02-07T13:28:11.028Z,972
2018-02-07T13:29:11.047Z,1000
2018-02-07T13:30:10.795Z,1048
2018-02-07T13:31:10.811Z,1128
2018-02-07T13:32:10.606Z,1184
2018-02-07T13:33:11.104Z,1140
2018-02-07T13:34:11.095Z,1060
2018-02-07T13:35:11.103Z,1036
2018-02-07T13:36:11.124Z,1048
2018-02-07T13:37:11.186Z,1016
2018-02-07T13:38:11.144Z,944
2018-02-07T13:39:11.418Z,896
2018-02-07T13:40:11.173Z,916
2018-02-07T13:41:10.677Z,980
2018-02-07T13:42:11.193Z,1000
2018-02-07T13:43:10.719Z,1024
2018-02-07T13:44:11.485Z,1040
2018-02-07T13:45:11.230Z,1048
2018-02-07T13:46:11.241Z,1084
2018-02-07T13:47:11.257Z,1236
2018-02-07T13:48:11.272Z,1392
2018-02-07T13:49:11.026Z,1464
2018-02-07T13:50:11.694Z,1428
2018-02-07T13:51:11.304Z,1360
2018-02-07T13:52:11.366Z,1280
2018-02-07T13:53:11.379Z,1228
2018-02-07T13:54:11.344Z,1252
2018-02-07T13:55:11.362Z,1256
2018-02-07T13:56:11.110Z,1228
2018-02-07T13:57:11.381Z,1288
2018-02-07T13:58:11.392Z,1396
2018-02-07T13:59:11.160Z,1400
2018-02-07T14:00:11.411Z,1308
2018-02-07T14:01:10.919Z,1252
2018-02-07T14:02:11.439Z,1240
2018-02-07T14:03:11.464Z,1296
2018-02-07T14:04:11.227Z,1468
2018-02-07T14:05:11.474Z,1660
2018-02-07T14:06:11.240Z,1792